• Join FlightAware (Why Join?)
  • Login
  • US Flag 
04:33AM EDT


 

Airport Tracker/Info


-or-


 

Live Flight TrackerFlight Track Log ✈ DAL863 ✈ 04-May-2013 ✈ KJFK - KLAX

Flight Track Log - Related Links

Times and Time Zones

All times are in EDT time to prevent confusion due to time zone crossing. See the DAL863 flight status page for this flight to view local times or setup timezone preferences in your user account.

Time Position Orientation Groundspeed Altitude Reporting Facility
EDT Latitude Longitude Course Direction KTS MPH feet Rate Location/Type
12:09PM 40.6340 -73.7850 270° West 163 188 200  Level FlightAware
12:10PM 40.6260 -73.7750 137° Southeast 171 197 800 2,160 Climbing FlightAware
12:10PM 40.6130 -73.7710 167° South 187 215 1,300 1,560 Climbing FlightAware
12:10PM 40.6010 -73.7680 169° South 210 242 1,600 1,620 Climbing FlightAware
12:11PM 40.5730 -73.7640 174° South 243 280 2,400 1,920 Climbing FlightAware
12:11PM 40.5420 -73.7810 203° Southwest 272 313 3,400 2,220 Climbing FlightAware
12:11PM 40.5340 -73.7950 233° Southwest 279 321 3,900 2,820 Climbing FlightAware
12:12PM 40.5140 -73.8400 240° Southwest 291 335 5,300 3,000 Climbing FlightAware
12:12PM 40.4920 -73.8870 238° Southwest 296 341 6,900 3,120 Climbing FlightAware
12:13PM 40.4748 -73.9242 239° Southwest 301 346 8,100 3,120 Climbing FlightAware ADS-B
12:13PM 40.4623 -73.9507 238° Southwest 304 350 9,000 2,820 Climbing FlightAware ADS-B
12:13PM 40.4497 -73.9771 238° Southwest 310 357 9,700 1,800 Climbing FlightAware ADS-B
12:14PM 40.4241 -74.0306 238° Southwest 341 392 10,500 840 Climbing FlightAware ADS-B
12:14PM 40.3970 -74.0881 238° Southwest 391 450 10,600 1,860 Climbing FlightAware ADS-B
12:15PM 40.3677 -74.1484 237° Southwest 382 440 12,400 1,860 Climbing FlightAware ADS-B
12:15PM 40.3369 -74.2127 238° Southwest 399 459 12,600 180 Climbing FlightAware ADS-B
12:16PM 40.3061 -74.2786 239° Southwest 395 455 12,600 60 Level FlightAware ADS-B
12:16PM 40.2769 -74.3405 238° Southwest 393 452 12,700 600 Climbing FlightAware ADS-B
12:17PM 40.2480 -74.4006 238° Southwest 392 451 13,200 1,800 Climbing FlightAware ADS-B
12:17PM 40.2190 -74.4613 238° Southwest 390 449 14,500 2,520 Climbing FlightAware ADS-B
12:17PM 40.2101 -74.4850 244° Southwest 392 451 15,000 2,280 Climbing FlightAware ADS-B
12:18PM 40.2002 -74.5294 254° West 394 453 15,700 2,220 Climbing FlightAware ADS-B
12:18PM 40.1936 -74.6057 264° West 401 461 16,900 2,220 Climbing FlightAware ADS-B
12:19PM 40.1879 -74.6786 264° West 407 468 18,000 2,100 Climbing FlightAware ADS-B
12:19PM 40.1821 -74.7534 264° West 415 478 19,000 1,740 Climbing FlightAware ADS-B
12:20PM 40.1760 -74.8306 264° West 425 489 19,800 1,920 Climbing FlightAware ADS-B
12:20PM 40.1691 -74.9161 264° West 425 489 21,100 2,100 Climbing FlightAware ADS-B
12:21PM 40.1625 -74.9964 264° West 430 495 22,100 1,680 Climbing FlightAware ADS-B
12:21PM 40.1551 -75.0869 264° West 439 505 23,000 1,620 Climbing FlightAware ADS-B
12:22PM 40.1484 -75.1675 264° West 443 510 23,900 1,740 Climbing FlightAware ADS-B
12:23PM 40.1416 -75.2477 264° West 446 513 24,800 1,740 Climbing FlightAware ADS-B
12:23PM 40.1343 -75.3345 264° West 448 516 25,700 1,620 Climbing FlightAware ADS-B
12:24PM 40.1268 -75.4225 264° West 451 519 26,600 1,500 Climbing FlightAware ADS-B
12:24PM 40.1199 -75.5036 264° West 455 524 27,300 1,320 Climbing FlightAware ADS-B
12:25PM 40.1126 -75.5874 264° West 458 527 28,000 1,320 Climbing FlightAware ADS-B
12:25PM 40.1051 -75.6729 263° West 460 529 28,700 1,260 Climbing FlightAware ADS-B
12:26PM 40.0978 -75.7558 263° West 464 534 29,300 1,200 Climbing FlightAware ADS-B
12:26PM 40.0892 -75.8529 263° West 466 536 30,000 1,620 Climbing FlightAware ADS-B
12:27PM 40.0817 -75.9356 263° West 457 526 31,100 1,860 Climbing FlightAware ADS-B
12:27PM 40.0743 -76.0178 263° West 452 520 31,900 1,320 Climbing FlightAware ADS-B
12:28PM 40.0666 -76.1027 263° West 453 521 32,500 1,260 Climbing FlightAware ADS-B
12:28PM 40.0582 -76.1946 263° West 451 519 33,300 1,320 Climbing FlightAware ADS-B
12:29PM 40.0524 -76.2864 265° West 448 516 34,000 1,200 Climbing FlightAware ADS-B
12:29PM 40.0528 -76.3683 270° West 445 512 34,600 1,140 Climbing FlightAware ADS-B
12:30PM 40.0528 -76.4489 270° West 445 512 35,200 1,140 Climbing FlightAware ADS-B
12:31PM 40.0526 -76.5588 270° West 441 507 36,000 1,140 Climbing FlightAware ADS-B
12:31PM 40.0539 -76.6487 271° West 435 501 36,700 1,200 Climbing FlightAware ADS-B
12:32PM 40.0546 -76.7276 271° West 431 496 37,300 840 Climbing FlightAware ADS-B
12:32PM 40.0551 -76.8100 270° West 432 497 37,600 600 Climbing FlightAware ADS-B
12:33PM 40.0555 -76.8953 270° West 431 496 38,000 360 Climbing FlightAware ADS-B
12:33PM 40.0559 -76.9769 270° West 432 497 38,000  Level FlightAware ADS-B
12:34PM 40.0564 -77.0568 270° West 434 499 38,000  Level FlightAware ADS-B
12:34PM 40.0568 -77.1421 270° West 435 501 38,000  Level FlightAware ADS-B
12:35PM 40.0572 -77.2278 270° West 436 502 38,000  Level FlightAware ADS-B
12:35PM 40.0575 -77.3083 270° West 436 502 38,000  Level FlightAware ADS-B
12:36PM 40.0580 -77.4617 270° West 437 503 38,000  Level FlightAware ADS-B
12:37PM 40.0582 -77.5629 270° West 438 504 38,000  Level FlightAware ADS-B
12:38PM 40.0580 -77.6980 270° West 438 504 38,000  Level FlightAware
12:39PM 40.0580 -77.8120 270° West 438 504 38,000  Level FlightAware
12:40PM 40.0580 -77.9460 270° West 438 504 38,000  Level FlightAware
12:40PM 40.0640 -78.0600 274° West 436 502 38,000  Level FlightAware
12:41PM 40.0620 -78.1610 269° West 439 505 38,000  Level FlightAware
12:41PM 40.0604 -78.2217 268° West 437 503 38,000  Level FlightAware ADS-B
12:42PM 40.0610 -78.3750 270° West 437 503 38,000  Level FlightAware
12:43PM 40.0610 -78.5130 270° West 438 504 38,000  Level FlightAware
12:44PM 40.0610 -78.6200 270° West 439 505 38,000  Level FlightAware
12:44PM 40.0610 -78.7240 270° West 439 505 38,000  Level FlightAware
12:45PM 40.0610 -78.8380 270° West 440 506 38,000  Level FlightAware
12:46PM 40.0640 -78.9440 272° West 441 507 38,000  Level FlightAware
12:47PM 40.0660 -79.0620 271° West 443 510 38,000  Level FlightAware
12:47PM 40.0680 -79.1800 271° West 445 512 38,000  Level FlightAware
12:48PM 40.0700 -79.3010 271° West 447 514 38,000  Level FlightAware
12:49PM 40.0720 -79.3950 272° West 449 517 38,000  Level FlightAware
12:49PM 40.0740 -79.5140 271° West 451 519 38,000  Level FlightAware
12:50PM 40.0750 -79.6440 271° West 452 520 38,000  Level FlightAware
12:51PM 40.0760 -79.7440 271° West 453 521 38,000  Level FlightAware
12:51PM 40.0780 -79.8640 271° West 454 522 38,000  Level FlightAware
12:52PM 40.0790 -79.9820 271° West 455 524 38,000  Level FlightAware
12:53PM 40.0800 -80.0920 271° West 456 525 38,000  Level FlightAware
12:53PM 40.0810 -80.2020 271° West 456 525 38,000  Level FlightAware
12:54PM 40.0820 -80.3280 271° West 457 526 38,000  Level FlightAware
12:55PM 40.0830 -80.4380 271° West 457 526 38,000  Level FlightAware
12:56PM 40.0840 -80.5590 271° West 456 525 38,000  Level FlightAware
12:56PM 40.0840 -80.6690 270° West 456 525 38,000  Level FlightAware
12:57PM 40.0850 -80.7910 271° West 457 526 38,000  Level FlightAware
12:58PM 40.0850 -80.9030 270° West 456 525 38,000  Level FlightAware
12:58PM 40.0850 -81.0280 270° West 456 525 38,000  Level FlightAware
12:59PM 40.0850 -81.1350 270° West 457 526 38,000  Level FlightAware
01:00PM 40.0850 -81.2540 270° West 458 527 38,000  Level FlightAware
01:01PM 40.0850 -81.4120 270° West 459 528 38,000  Level FlightAware
01:01PM 40.0850 -81.5080 270° West 459 528 38,000  Level FlightAware
01:02PM 40.0840 -81.6350 269° West 459 528 38,000  Level FlightAware
01:03PM 40.0840 -81.7410 270° West 459 528 38,000  Level FlightAware
01:04PM 40.0830 -81.8670 269° West 459 528 38,000  Level FlightAware
01:04PM 40.0820 -81.9940 269° West 458 527 38,000  Level FlightAware
01:05PM 40.0820 -82.1020 270° West 458 527 38,000  Level FlightAware
01:06PM 40.0810 -82.2150 269° West 458 527 38,000  Level FlightAware
01:06PM 40.0790 -82.3380 269° West 458 527 38,000  Level FlightAware
01:07PM 40.0780 -82.4460 269° West 458 527 38,000  Level FlightAware
01:08PM 40.0770 -82.5560 269° West 458 527 38,000  Level FlightAware
01:08PM 40.0750 -82.6800 269° West 459 528 38,000  Level FlightAware
01:09PM 40.0740 -82.7920 269° West 460 529 38,000  Level FlightAware
01:10PM 40.0720 -82.9150 269° West 461 531 38,000  Level FlightAware
01:11PM 40.0700 -83.0300 269° West 462 532 38,000  Level FlightAware
01:11PM 40.0680 -83.1520 269° West 463 533 38,000  Level FlightAware
01:12PM 40.0670 -83.2520 269° West 464 534 38,000  Level FlightAware
01:13PM 40.0640 -83.3770 268° West 465 535 38,000  Level FlightAware
01:13PM 40.0620 -83.5010 269° West 466 536 38,000  Level FlightAware
01:14PM 40.0590 -83.6140 268° West 468 539 38,000  Level FlightAware
01:15PM 40.0570 -83.7310 269° West 469 540 38,000  Level FlightAware
01:15PM 40.0540 -83.8550 268° West 470 541 38,000  Level FlightAware
01:16PM 40.0510 -83.9680 268° West 470 541 38,000  Level FlightAware
01:17PM 40.0480 -84.0990 268° West 470 541 38,000  Level FlightAware
01:18PM 40.0460 -84.1920 268° West 470 541 38,000  Level FlightAware
01:18PM 40.0420 -84.3310 268° West 471 542 38,000  Level FlightAware
01:19PM 40.0390 -84.4470 268° West 470 541 38,000  Level FlightAware
01:20PM 40.0360 -84.5630 268° West 469 540 38,000  Level FlightAware
01:20PM 40.0330 -84.6600 268° West 468 539 38,000  Level FlightAware
01:21PM 40.0290 -84.7960 268° West 465 535 38,000  Level FlightAware
01:22PM 40.0250 -84.9180 268° West 462 532 38,000  Level FlightAware
01:22PM 40.0210 -85.0160 267° West 462 532 38,000  Level FlightAware
01:23PM 40.0170 -85.1390 268° West 460 529 38,000  Level FlightAware
01:24PM 40.0140 -85.2260 267° West 460 529 38,000  Level FlightAware
01:24PM 40.0090 -85.3530 267° West 461 531 38,000  Level FlightAware
01:25PM 40.0030 -85.4880 267° West 461 531 38,000  Level FlightAware
01:26PM 39.9980 -85.5820 266° West 461 531 38,000  Level FlightAware
01:27PM 39.9930 -85.7320 268° West 462 532 38,000  Level FlightAware
01:27PM 39.9870 -85.8570 266° West 461 531 38,000  Level FlightAware
01:28PM 39.9820 -85.9650 267° West 460 529 38,000  Level FlightAware
01:29PM 39.9760 -86.0750 266° West 460 529 38,000  Level FlightAware
01:29PM 39.9710 -86.1930 267° West 458 527 38,000  Level FlightAware
01:30PM 39.9650 -86.3230 267° West 458 527 38,000  Level FlightAware
01:31PM 39.9590 -86.4350 266° West 457 526 38,000  Level FlightAware
01:32PM 39.9540 -86.5440 267° West 457 526 38,000  Level FlightAware
01:32PM 39.9480 -86.6620 266° West 457 526 38,000  Level FlightAware
01:33PM 39.9420 -86.7770 266° West 456 525 38,000  Level FlightAware
01:34PM 39.9350 -86.8900 265° West 457 526 38,000  Level FlightAware
01:34PM 39.9290 -87.0080 266° West 457 526 38,000  Level FlightAware
01:35PM 39.9210 -87.1570 266° West 458 527 38,000  Level FlightAware
01:36PM 39.9130 -87.2820 265° West 459 528 38,000  Level FlightAware
01:37PM 39.9070 -87.3870 266° West 459 528 38,000  Level FlightAware
01:37PM 39.9010 -87.4990 266° West 460 529 38,000  Level FlightAware
01:38PM 39.8930 -87.6220 265° West 461 531 38,000  Level FlightAware
01:39PM 39.8860 -87.7400 266° West 462 532 38,000  Level FlightAware
01:39PM 39.8790 -87.8460 265° West 462 532 38,000  Level FlightAware
01:40PM 39.8710 -87.9730 265° West 462 532 38,000  Level FlightAware
01:41PM 39.8640 -88.0860 265° West 463 533 38,000  Level FlightAware
01:42PM 39.8570 -88.1940 265° West 463 533 38,000  Level FlightAware
01:42PM 39.8480 -88.3230 265° West 463 533 38,000  Level FlightAware
01:43PM 39.8400 -88.4460 265° West 463 533 38,000  Level FlightAware
01:44PM 39.8330 -88.5520 265° West 463 533 38,000  Level FlightAware
01:44PM 39.8250 -88.6650 265° West 463 533 38,000  Level FlightAware
01:45PM 39.8160 -88.7920 265° West 463 533 38,000  Level FlightAware
01:46PM 39.8080 -88.9030 265° West 463 533 38,000  Level FlightAware
01:47PM 39.7990 -89.0240 265° West 464 534 38,000  Level FlightAware
01:47PM 39.7910 -89.1370 265° West 464 534 38,000  Level FlightAware
01:48PM 39.7830 -89.2480 265° West 464 534 38,000  Level FlightAware
01:49PM 39.7730 -89.3750 264° West 465 535 38,000  Level FlightAware
01:49PM 39.7650 -89.4790 264° West 466 536 38,000  Level FlightAware
01:50PM 39.7550 -89.6080 264° West 467 537 38,000  Level FlightAware
01:51PM 39.7460 -89.7220 264° West 468 539 38,000  Level FlightAware
01:51PM 39.7380 -89.8270 264° West 469 540 38,000  Level FlightAware
01:52PM 39.7270 -89.9620 264° West 469 540 38,000  Level FlightAware
01:53PM 39.7180 -90.0640 263° West 469 540 38,000  Level FlightAware
01:53PM 39.7090 -90.1790 264° West 469 540 38,000  Level FlightAware
01:54PM 39.6980 -90.3090 264° West 469 540 38,000  Level FlightAware
01:55PM 39.6890 -90.4160 264° West 469 540 38,000  Level FlightAware
01:56PM 39.6790 -90.5210 263° West 469 540 38,000  Level FlightAware
01:56PM 39.6680 -90.6530 264° West 469 540 38,000  Level FlightAware
01:57PM 39.6600 -90.7500 264° West 468 539 38,000  Level FlightAware
01:58PM 39.6460 -90.9010 263° West 468 539 38,000  Level FlightAware
01:59PM 39.6350 -91.0200 263° West 468 539 38,000  Level FlightAware
02:00PM 39.6190 -91.1940 263° West 471 542 38,000  Level FlightAware
02:00PM 39.6100 -91.3020 264° West 473 544 38,000  Level FlightAware
02:01PM 39.5920 -91.4840 263° West 475 547 38,000  Level FlightAware
02:02PM 39.5820 -91.5950 263° West 477 549 38,000  Level FlightAware
02:02PM 39.5730 -91.6910 263° West 478 550 38,000  Level FlightAware
02:03PM 39.5590 -91.8330 263° West 479 551 38,000  Level FlightAware
02:04PM 39.5430 -91.9950 263° West 482 555 38,000  Level FlightAware
02:05PM 39.5310 -92.1120 262° West 482 555 38,000  Level FlightAware
02:06PM 39.5200 -92.2250 263° West 484 557 38,000  Level FlightAware
02:06PM 39.5080 -92.3370 262° West 484 557 38,000  Level FlightAware
02:07PM 39.4950 -92.4660 263° West 486 559 38,000  Level FlightAware
02:08PM 39.4820 -92.5930 262° West 487 560 38,000  Level FlightAware
02:08PM 39.4690 -92.7110 262° West 487 560 38,000  Level FlightAware
02:09PM 39.4560 -92.8410 263° West 488 562 38,000  Level FlightAware
02:10PM 39.4430 -92.9570 262° West 488 562 38,000  Level FlightAware
02:11PM 39.4290 -93.0880 262° West 488 562 38,000  Level FlightAware
02:11PM 39.4170 -93.2010 262° West 488 562 38,000  Level FlightAware
02:12PM 39.4030 -93.3210 261° West 488 562 38,000  Level FlightAware
02:13PM 39.3890 -93.4440 262° West 487 560 38,000  Level FlightAware
02:13PM 39.3760 -93.5670 262° West 486 559 38,000  Level FlightAware
02:14PM 39.3620 -93.6890 262° West 484 557 38,000  Level FlightAware
02:15PM 39.3490 -93.8030 262° West 483 556 38,000  Level FlightAware
02:15PM 39.3350 -93.9190 261° West 482 555 38,000  Level FlightAware
02:16PM 39.3200 -94.0470 261° West 481 554 38,000  Level FlightAware
02:17PM 39.3070 -94.1610 262° West 481 554 38,000  Level FlightAware
02:18PM 39.2910 -94.2880 261° West 481 554 38,000  Level FlightAware
02:18PM 39.2780 -94.4000 262° West 482 555 38,000  Level FlightAware
02:19PM 39.2640 -94.5150 261° West 481 554 38,000  Level FlightAware
02:20PM 39.2480 -94.6440 261° West 480 552 38,000  Level FlightAware
02:20PM 39.2340 -94.7570 261° West 480 552 38,000  Level FlightAware
02:21PM 39.2200 -94.8690 261° West 480 552 38,000  Level FlightAware
02:22PM 39.2050 -94.9940 261° West 479 551 38,000  Level FlightAware
02:22PM 39.1920 -95.0920 260° West 484 557 38,000  Level FlightAware
02:23PM 39.1700 -95.2660 261° West 491 565 38,000  Level FlightAware
02:24PM 39.1540 -95.3910 261° West 489 563 38,000  Level FlightAware
02:25PM 39.1400 -95.4960 260° West 486 559 38,000  Level FlightAware
02:25PM 39.1240 -95.6170 260° West 485 558 38,000  Level FlightAware
02:26PM 39.1170 -95.6690 260° West 486 559 38,000  Level FlightAware
02:27PM 39.1030 -95.7800 261° West 485 558 38,000  Level FlightAware
02:28PM 39.0870 -95.8990 260° West 482 555 38,000  Level FlightAware
02:28PM 39.0730 -95.9990 260° West 480 552 38,000  Level FlightAware
02:29PM 39.0610 -96.0900 260° West 480 552 38,000  Level FlightAware
02:30PM 39.0410 -96.2320 260° West 38,000  Level FlightAware
02:30PM 39.0075 -96.4736 260° West 476 548 38,000  Level Kansas City Center
02:32PM 38.9825 -96.6256 258° West 474 545 38,000  Level Kansas City Center
02:33PM 38.9608 -96.7872 260° West 464 534 38,000  Level Kansas City Center
02:34PM 38.9397 -96.9492 261° West 460 529 38,000  Level Kansas City Center
02:35PM 38.9128 -97.1406 260° West 457 526 38,000  Level Kansas City Center
02:36PM 38.8897 -97.3006 260° West 458 527 38,000  Level Kansas City Center
02:37PM 38.8661 -97.4564 259° West 450 518 38,000  Level Kansas City Center
02:38PM 38.8386 -97.6214 258° West 442 509 38,000  Level Kansas City Center
02:39PM 38.8178 -97.7700 260° West 443 510 38,000  Level Kansas City Center
02:40PM 38.7956 -97.9189 259° West 445 512 38,000  Level Kansas City Center
02:41PM 38.7722 -98.0722 259° West 441 507 38,000  Level Kansas City Center
02:42PM 38.7444 -98.2536 259° West 437 503 38,000  Level Kansas City Center
02:43PM 38.7206 -98.4042 259° West 434 499 38,000  Level Kansas City Center
02:44PM 38.6969 -98.5575 259° West 441 507 38,000  Level Kansas City Center
02:45PM 38.6728 -98.7108 259° West 442 509 38,000  Level Kansas City Center
02:46PM 38.6486 -98.8592 258° West 430 495 38,000  Level Kansas City Center
02:47PM 38.6253 -99.0078 259° West 427 491 38,000  Level Kansas City Center
02:48PM 38.6011 -99.1542 258° West 424 488 38,000  Level Kansas City Center
02:49PM 38.5700 -99.3369 258° West 436 502 38,000  Level Kansas City Center
02:50PM 38.5444 -99.4897 258° West 440 506 38,000  Level Kansas City Center
02:51PM 38.5197 -99.6425 258° West 430 495 38,000  Level Kansas City Center
02:52PM 38.4958 -99.7836 258° West 427 491 38,000  Level Kansas City Center
02:53PM 38.4675 -99.9456 257° West 422 486 38,000  Level Kansas City Center
02:54PM 38.4558 -100.0122 257° West 414 476 38,000  Level Denver Center
02:55PM 38.4317 -100.1469 257° West 410 472 38,000  Level Denver Center
02:56PM 38.4050 -100.3011 258° West 401 461 38,000  Level Denver Center
02:57PM 38.3819 -100.4297 257° West 391 450 38,000  Level Denver Center
02:57PM 38.3714 -100.4961 259° West 394 453 38,000  Level Kansas City Center
02:58PM 38.3450 -100.6472 257° West 392 451 38,000  Level Kansas City Center
02:59PM 38.3325 -100.7103 256° West 393 452 38,000  Level Denver Center
03:00PM 38.3094 -100.8411 257° West 395 455 38,000  Level Denver Center
03:05PM 38.1600 -101.6540 257° West 397 457 38,000  Level FlightAware ADS-B
03:06PM 38.1472 -101.7220 257° West 395 455 38,000  Level FlightAware ADS-B
03:06PM 38.1344 -101.7890 256° West 394 453 38,000  Level FlightAware ADS-B
03:07PM 38.1215 -101.8570 256° West 393 452 38,000  Level FlightAware ADS-B
03:07PM 38.1087 -101.9250 257° West 392 451 38,000  Level FlightAware ADS-B
03:08PM 38.0921 -102.0120 256° West 391 450 38,000  Level FlightAware ADS-B
03:09PM 38.0791 -102.0800 256° West 391 450 38,000  Level FlightAware ADS-B
03:09PM 38.0662 -102.1470 256° West 391 450 38,000  Level FlightAware ADS-B
03:10PM 38.0528 -102.2160 256° West 392 451 38,000  Level FlightAware ADS-B
03:10PM 38.0398 -102.2830 256° West 393 452 38,000  Level FlightAware ADS-B
03:11PM 38.0267 -102.3510 256° West 395 455 38,000  Level FlightAware ADS-B
03:11PM 38.0134 -102.4190 256° West 397 457 38,000  Level FlightAware ADS-B
03:12PM 38.0002 -102.4870 256° West 397 457 38,000  Level FlightAware ADS-B
03:12PM 37.9867 -102.5550 256° West 397 457 38,000  Level FlightAware ADS-B
03:13PM 37.9734 -102.6230 256° West 397 457 38,000  Level FlightAware ADS-B
03:13PM 37.9599 -102.6910 256° West 397 457 38,000  Level FlightAware ADS-B
03:14PM 37.9461 -102.7610 256° West 398 458 38,000  Level FlightAware ADS-B
03:14PM 37.9323 -102.8300 256° West 398 458 38,000  Level FlightAware ADS-B
03:15PM 37.9188 -102.8990 256° West 399 459 38,000  Level FlightAware ADS-B
03:15PM 37.9047 -102.9690 256° West 399 459 38,000  Level FlightAware ADS-B
03:16PM 37.8911 -103.0370 256° West 398 458 38,000  Level FlightAware ADS-B
03:16PM 37.8772 -103.1060 256° West 398 458 38,000  Level FlightAware ADS-B
03:17PM 37.8633 -103.1740 256° West 398 458 38,000  Level FlightAware ADS-B
03:17PM 37.8494 -103.2430 256° West 398 458 38,000  Level FlightAware ADS-B
03:18PM 37.8357 -103.3100 256° West 397 457 38,000  Level FlightAware ADS-B
03:18PM 37.8218 -103.3780 256° West 397 457 38,000  Level FlightAware ADS-B
03:19PM 37.8078 -103.4470 256° West 396 456 38,000  Level FlightAware ADS-B
03:19PM 37.7939 -103.5140 255° West 394 453 38,000  Level FlightAware ADS-B
03:20PM 37.7802 -103.5810 256° West 392 451 38,000  Level FlightAware ADS-B
03:20PM 37.7643 -103.6580 255° West 391 450 38,000  Level FlightAware ADS-B
03:21PM 37.7505 -103.7240 255° West 390 449 38,000  Level FlightAware ADS-B
03:21PM 37.7364 -103.7920 255° West 389 448 38,000  Level FlightAware ADS-B
03:22PM 37.7225 -103.8590 255° West 389 448 38,000  Level FlightAware ADS-B
03:22PM 37.7083 -103.9270 255° West 388 447 38,000  Level FlightAware ADS-B
03:23PM 37.6945 -103.9920 255° West 387 445 38,000  Level FlightAware ADS-B
03:23PM 37.6804 -104.0590 255° West 387 445 38,000  Level FlightAware ADS-B
03:24PM 37.6666 -104.1250 255° West 387 445 38,000  Level FlightAware ADS-B
03:24PM 37.6516 -104.1950 255° West 388 447 38,000  Level FlightAware ADS-B
03:25PM 37.6343 -104.2770 255° West 388 447 38,000  Level FlightAware ADS-B
03:26PM 37.6017 -104.4290 255° West 389 448 38,000  Level FlightAware ADS-B
03:27PM 37.5857 -104.5040 255° West 390 449 38,000  Level FlightAware ADS-B
03:28PM 37.5616 -104.6150 255° West 390 449 38,000  Level FlightAware ADS-B
03:28PM 37.5397 -104.7160 255° West 390 449 38,000  Level FlightAware ADS-B
03:29PM 37.5214 -104.8010 255° West 389 448 38,000  Level FlightAware ADS-B
03:30PM 37.4975 -104.9100 255° West 390 449 38,000  Level FlightAware ADS-B
03:30PM 37.4825 -104.9780 254° West 391 450 38,000  Level FlightAware ADS-B
03:31PM 37.4674 -105.0470 255° West 391 450 38,000  Level FlightAware ADS-B
03:31PM 37.4529 -105.1130 255° West 392 451 38,000  Level FlightAware ADS-B
03:32PM 37.4377 -105.1810 254° West 394 453 38,000  Level FlightAware ADS-B
03:32PM 37.4229 -105.2480 254° West 392 451 38,000  Level FlightAware ADS-B
03:33PM 37.4090 -105.3030 252° West 395 455 38,000  Level FlightAware ADS-B
03:34PM 37.3789 -105.3930 247° West 395 455 38,000  Level FlightAware ADS-B
03:34PM 37.3511 -105.4742 247° West 395 455 38,000  Level Albuquerque Center
03:35PM 37.3447 -105.4972 251° West 393 452 38,000  Level Denver Center
03:36PM 37.3006 -105.6414 249° West 395 455 38,000  Level Denver Center
03:37PM 37.2619 -105.7622 248° West 396 456 38,000  Level Denver Center
03:38PM 37.2147 -105.9067 248° West 396 456 38,000  Level Denver Center
03:39PM 37.1764 -106.0294 249° West 395 455 38,000  Level Denver Center
03:40PM 37.1358 -106.1525 248° West 398 458 38,000  Level Denver Center
03:41PM 37.0886 -106.2942 247° West 397 457 38,000  Level Denver Center
03:42PM 37.0494 -106.4175 248° West 397 457 38,000  Level Denver Center
03:43PM 37.0011 -106.5586 247° West 395 455 38,000  Level Denver Center
03:44PM 36.9614 -106.6794 248° West 394 453 38,000  Level Denver Center
03:45PM 36.9197 -106.8006 247° West 396 456 38,000  Level Denver Center
03:46PM 36.8694 -106.9408 246° West 395 455 38,000  Level Denver Center
03:47PM 36.8261 -107.0608 246° West 397 457 38,000  Level Denver Center
03:48PM 36.7753 -107.2017 246° West 399 459 38,000  Level Denver Center
03:49PM 36.7311 -107.3231 246° West 402 463 38,000  Level Denver Center
03:54PM 36.4730 -108.0300 246° West 404 465 38,000  Level FlightAware
03:55PM 36.4390 -108.1200 245° Southwest 404 465 38,000  Level FlightAware
03:56PM 36.4120 -108.1910 245° Southwest 404 465 38,000  Level FlightAware
03:56PM 36.3860 -108.2630 246° West 404 465 38,000  Level FlightAware
03:57PM 36.3590 -108.3340 245° Southwest 404 465 38,000  Level FlightAware
03:58PM 36.3060 -108.4760 245° Southwest 405 466 38,000  Level FlightAware
03:59PM 36.2700 -108.5730 245° Southwest 406 467 38,000  Level FlightAware
03:59PM 36.2440 -108.6410 245° Southwest 404 465 38,000  Level FlightAware
04:00PM 36.2110 -108.7290 245° Southwest 404 465 38,000  Level FlightAware
04:01PM 36.1840 -108.8000 245° Southwest 404 465 38,000  Level FlightAware
04:01PM 36.1570 -108.8710 245° Southwest 404 465 38,000  Level FlightAware
04:02PM 36.1240 -108.9600 245° Southwest 404 465 38,000  Level FlightAware
04:03PM 36.0970 -109.0320 245° Southwest 404 465 38,000  Level FlightAware
04:03PM 36.0700 -109.1030 245° Southwest 404 465 38,000  Level FlightAware
04:04PM 36.0430 -109.1740 245° Southwest 404 465 38,000  Level FlightAware
04:05PM 36.0160 -109.2450 245° Southwest 404 465 38,000  Level FlightAware
04:06PM 35.9320 -109.4550 244° Southwest 405 466 38,000  Level FlightAware
04:06PM 35.8990 -109.5410 245° Southwest 404 465 38,000  Level FlightAware
04:07PM 35.8630 -109.6320 244° Southwest 405 466 38,000  Level FlightAware
04:08PM 35.8300 -109.7170 244° Southwest 406 467 38,000  Level FlightAware
04:08PM 35.7990 -109.7960 244° Southwest 407 468 38,000  Level FlightAware
04:09PM 35.7600 -109.8950 244° Southwest 407 468 38,000  Level FlightAware
04:10PM 35.7280 -109.9770 244° Southwest 408 470 38,000  Level FlightAware
04:10PM 35.6960 -110.0590 244° Southwest 407 468 38,000  Level FlightAware
04:11PM 35.6580 -110.1550 244° Southwest 409 471 38,000  Level FlightAware
04:12PM 35.6240 -110.2390 244° Southwest 409 471 38,000  Level FlightAware
04:13PM 35.5880 -110.3300 244° Southwest 411 473 38,000  Level FlightAware
04:13PM 35.5550 -110.4130 244° Southwest 411 473 38,000  Level FlightAware
04:14PM 35.5160 -110.5120 244° Southwest 413 475 38,000  Level FlightAware
04:15PM 35.4820 -110.5960 244° Southwest 414 476 38,000  Level FlightAware
04:15PM 35.4480 -110.6800 244° Southwest 413 475 38,000  Level FlightAware
04:16PM 35.4110 -110.7710 244° Southwest 415 478 38,000  Level FlightAware
04:17PM 35.3770 -110.8560 244° Southwest 414 476 38,000  Level FlightAware
04:18PM 35.3380 -110.9520 244° Southwest 413 475 38,000  Level FlightAware
04:18PM 35.3070 -111.0370 246° West 407 468 38,000  Level FlightAware
04:19PM 35.2900 -111.1260 257° West 406 467 38,000  Level FlightAware
04:20PM 35.2680 -111.2240 255° West 411 473 38,000  Level FlightAware
04:20PM 35.2450 -111.3140 253° West 413 475 38,000  Level FlightAware
04:21PM 35.2230 -111.4030 253° West 413 475 38,000  Level FlightAware
04:22PM 35.1980 -111.5040 253° West 411 473 38,000  Level FlightAware
04:22PM 35.1760 -111.5950 254° West 410 472 38,000  Level FlightAware
04:23PM 35.1520 -111.6910 253° West 408 470 38,000  Level FlightAware
04:24PM 35.1310 -111.7790 254° West 405 466 38,000  Level FlightAware
04:25PM 35.1080 -111.8780 254° West 404 465 38,000  Level FlightAware
04:25PM 35.0870 -111.9650 254° West 404 465 38,000  Level FlightAware
04:26PM 35.0670 -112.0510 254° West 402 463 38,000  Level FlightAware
04:27PM 35.0420 -112.1530 253° West 403 464 38,000  Level FlightAware
04:27PM 35.0220 -112.2390 254° West 403 464 38,000  Level FlightAware
04:28PM 35.0010 -112.3240 253° West 403 464 38,000  Level FlightAware
04:29PM 34.9770 -112.4230 254° West 403 464 38,000  Level FlightAware
04:29PM 34.9560 -112.5100 254° West 403 464 38,000  Level FlightAware
04:30PM 34.9330 -112.6060 254° West 403 464 38,000  Level FlightAware
04:31PM 34.9110 -112.6970 254° West 402 463 38,000  Level FlightAware
04:31PM 34.8900 -112.7830 253° West 402 463 38,000  Level FlightAware
04:32PM 34.8660 -112.8790 253° West 403 464 38,000  Level FlightAware
04:33PM 34.8440 -112.9670 253° West 403 464 38,000  Level FlightAware
04:34PM 34.8200 -113.0660 254° West 403 464 38,000  Level FlightAware
04:34PM 34.7990 -113.1500 253° West 402 463 38,000  Level FlightAware
04:35PM 34.7770 -113.2370 253° West 402 463 38,000  Level FlightAware
04:36PM 34.7530 -113.3310 253° West 402 463 38,000  Level FlightAware
04:36PM 34.7310 -113.4210 253° West 402 463 38,000  Level FlightAware
04:37PM 34.7100 -113.5050 253° West 401 461 38,000  Level FlightAware
04:38PM 34.6850 -113.6030 253° West 401 461 38,000  Level FlightAware
04:38PM 34.6630 -113.6900 253° West 401 461 38,000  Level FlightAware
04:39PM 34.6400 -113.7790 253° West 402 463 38,000  Level FlightAware
04:40PM 34.6160 -113.8730 253° West 402 463 38,000  Level FlightAware
04:41PM 34.5920 -113.9680 253° West 403 464 38,000  Level FlightAware
04:41PM 34.5710 -114.0500 253° West 403 464 38,000  Level FlightAware
04:42PM 34.5480 -114.1390 253° West 403 464 38,000  Level FlightAware
04:43PM 34.5220 -114.2380 252° West 402 463 38,000  Level FlightAware
04:43PM 34.5000 -114.3220 252° West 402 463 38,000  Level FlightAware
04:44PM 34.4750 -114.4190 253° West 400 460 38,000  Level FlightAware
04:45PM 34.4520 -114.5060 252° West 398 458 38,000  Level FlightAware
04:45PM 34.4300 -114.5890 252° West 397 457 38,000  Level FlightAware
04:46PM 34.4010 -114.6980 252° West 397 457 38,000  Level FlightAware
04:47PM 34.3740 -114.8000 252° West 397 457 38,000  Level FlightAware
04:48PM 34.3600 -114.8870 259° West 397 457 38,000  Level FlightAware
04:49PM 34.3430 -114.9870 258° West 397 457 38,000  Level FlightAware
04:49PM 34.3280 -115.0740 258° West 397 457 38,000  Level FlightAware
04:50PM 34.3120 -115.1590 257° West 396 456 38,000  Level FlightAware
04:51PM 34.2940 -115.2550 257° West 397 457 38,000  Level FlightAware
04:51PM 34.2790 -115.3410 258° West 396 456 38,000  Level FlightAware
04:52PM 34.2640 -115.4260 258° West 395 455 38,000  Level FlightAware
04:53PM 34.2460 -115.5260 258° West 394 453 38,000  Level FlightAware
04:53PM 34.2290 -115.6220 258° West 394 453 38,000  Level FlightAware
04:54PM 34.2140 -115.7070 258° West 395 455 38,000  Level FlightAware
04:55PM 34.2000 -115.7870 258° West 396 456 38,000 -180 Level FlightAware
04:56PM 34.1800 -115.8930 257° West 393 452 37,800 -600 Descending FlightAware
04:56PM 34.1660 -115.9760 259° West 394 453 37,100 -2,100 Descending FlightAware
04:57PM 34.1480 -116.0710 257° West 402 463 34,900 -2,880 Descending FlightAware
04:58PM 34.1320 -116.1600 258° West 400 460 33,100 -2,340 Descending FlightAware
04:58PM 34.1160 -116.2490 258° West 386 444 31,800 -1,860 Descending FlightAware
04:59PM 34.0990 -116.3420 258° West 373 429 30,500 -1,860 Descending FlightAware
05:00PM 34.0840 -116.4200 257° West 366 421 29,200 -1,980 Descending FlightAware
05:00PM 34.0680 -116.5100 258° West 359 413 27,700 -2,100 Descending FlightAware
05:01PM 34.0570 -116.5670 257° West 356 410 26,600 -2,100 Descending FlightAware
05:02PM 34.0400 -116.6560 257° West 351 404 25,100 -2,100 Descending FlightAware
05:02PM 34.0260 -116.7310 257° West 346 398 23,700 -1,980 Descending FlightAware
05:03PM 34.0110 -116.8140 258° West 342 394 22,300 -1,980 Descending FlightAware
05:04PM 33.9970 -116.8890 257° West 339 390 20,900 -1,980 Descending FlightAware
05:05PM 33.9810 -116.9690 256° West 335 386 19,500 -1,920 Descending FlightAware
05:05PM 33.9670 -117.0450 257° West 329 379 18,200 -1,740 Descending FlightAware
05:06PM 33.9560 -117.1140 259° West 323 372 17,200 -1,500 Descending FlightAware
05:07PM 33.9610 -117.1950 274° West 325 374 16,100 -1,560 Descending FlightAware
05:07PM 33.9680 -117.2700 276° West 349 402 15,000 -1,440 Descending FlightAware
05:08PM 33.9740 -117.3570 275° West 352 405 14,100 -960 Descending FlightAware
05:09PM 33.9790 -117.4330 275° West 345 397 13,700 -1,380 Descending FlightAware
05:09PM 33.9850 -117.5100 275° West 340 391 12,300 -1,680 Descending FlightAware
05:10PM 33.9910 -117.5940 275° West 319 367 11,400 -1,200 Descending FlightAware
05:11PM 33.9950 -117.6630 274° West 303 349 10,600 -1,080 Descending FlightAware
05:11PM 34.0000 -117.7250 276° West 275 316 10,000 -1,080 Descending FlightAware
05:12PM 34.0030 -117.7700 275° West 252 290 9,400 -1,140 Descending FlightAware
05:12PM 34.0050 -117.8100 273° West 226 260 8,900 -1,020 Descending FlightAware
05:13PM 34.0000 -117.8410 259° West 213 245 8,500 -1,140 Descending FlightAware
05:13PM 33.9910 -117.8740 252° West 210 242 7,900 -1,140 Descending FlightAware
05:14PM 33.9850 -117.9010 255° West 208 239 7,500 -1,140 Descending FlightAware
05:14PM 33.9810 -117.9340 262° West 208 239 6,900 -1,200 Descending FlightAware
05:15PM 33.9780 -117.9700 264° West 214 246 6,300 -1,020 Descending FlightAware
05:15PM 33.9760 -118.0010 266° West 208 239 6,000 -900 Descending FlightAware
05:16PM 33.9720 -118.0360 262° West 205 236 5,500 -900 Descending FlightAware
05:16PM 33.9700 -118.0620 265° West 208 239 5,200 -660 Descending FlightAware
05:17PM 33.9660 -118.0970 262° West 209 241 4,900 -900 Descending FlightAware
05:17PM 33.9630 -118.1320 264° West 211 243 4,300 -1,140 Descending FlightAware
05:18PM 33.9600 -118.1620 263° West 209 241 3,900 -1,140 Descending FlightAware
05:18PM 33.9560 -118.1980 262° West 208 239 3,300 -1,200 Descending FlightAware
05:18PM 33.9540 -118.2190 263° West 205 236 2,900 -1,140 Descending FlightAware
05:19PM 33.9500 -118.2580 263° West 202 232 2,300 -720 Descending FlightAware
05:20PM 33.9460 -118.2940 262° West 203 234 2,100 -1,200 Descending FlightAware
05:20PM 33.9500 -118.3167 262° West 186 214 1,300 -1,260 Descending Southern California TRACON
05:21PM 33.9333 -118.3667 248° West 150 173 500 -720 Descending Southern California TRACON
05:21PM 33.9400 -118.3708 333° Northwest 167 192 400 -240 Descending Los Angeles Center
05:22PM 33.9353 -118.4186 263° West 163 188 200 -240 Descending Los Angeles Center